Brooklyn, Minnesota
Current Conditions -  °F | °C
As of 6:53 AM on Saturday 25 Oct 2014 (Local Time) from KHIB Reporting Station
Clear Clear  
Wind Chill: 42°   Ceiling: Unl
Heat Index: 47°   Visibility: 10mi
Dew Point: 31°   Wind: 12mph
Humidity: 54%   Direction: 300°WNW
Pressure: 29.88"   Gusts: 22mph
Location:  47.4158°N, 93.0053°W
Report Text: KHIB 251153Z AUTO 30010G19KT 10SM CLR 08/M01 A2988 RMK AO2 SLP124 T00831006 10139 20083 53020
Loading
Personal Weather Stations






























Interactive Weather Map
Tropical Storm Tracking
New forecast layout! Learn more

10-Day Weather Forecast

Advertisements
Track Severe Weather on mobile